Time;durP1;ratioP1;P1;durP2;ratioP2;P2;SDS_P1;SDS_P2;PMS_P1;PMS_P2;Temp;Humidity;BMP_temperature;BMP_pressure;BME280_temperature;BME280_humidity;BME280_pressure;Samples;Min_cycle;Max_cycle;Signal;HPM_P1;HPM_P2
2023/09/26 00:00:24;;;;;;;12.30;6.65;;;16.40;99.90;;;;;;5037807;28;20514;-65
2023/09/26 00:02:53;;;;;;;8.45;6.80;;;16.40;99.90;;;;;;5031193;28;20110;-65
2023/09/26 00:05:20;;;;;;;9.15;6.97;;;16.30;99.90;;;;;;5048310;28;20037;-65
2023/09/26 00:07:48;;;;;;;9.82;7.32;;;16.30;99.90;;;;;;5043081;28;20044;-65
2023/09/26 00:10:14;;;;;;;9.02;6.85;;;16.30;99.90;;;;;;5041001;28;20124;-65
2023/09/26 00:12:40;;;;;;;9.35;7.25;;;16.30;99.90;;;;;;5043439;28;20041;-65
2023/09/26 00:15:07;;;;;;;8.68;7.07;;;16.30;99.90;;;;;;5045556;28;20437;-65
2023/09/26 00:17:33;;;;;;;11.93;7.00;;;16.30;99.90;;;;;;5049590;28;20094;-65
2023/09/26 00:19:59;;;;;;;10.73;7.03;;;16.30;99.90;;;;;;5052879;28;20041;-65
2023/09/26 00:22:25;;;;;;;8.77;6.35;;;16.30;99.90;;;;;;5046350;28;20059;-65
2023/09/26 00:24:51;;;;;;;8.85;6.47;;;16.30;99.90;;;;;;5052414;28;20025;-65
2023/09/26 00:27:20;;;;;;;8.57;6.60;;;16.30;99.90;;;;;;5052664;28;20037;-65
2023/09/26 00:29:45;;;;;;;11.80;6.57;;;16.30;99.90;;;;;;5052796;28;20059;-65
2023/09/26 00:32:11;;;;;;;9.18;6.55;;;16.30;99.90;;;;;;5046153;28;20483;-65
2023/09/26 00:34:37;;;;;;;7.50;6.63;;;16.30;99.90;;;;;;5049601;28;20049;-65
2023/09/26 00:37:03;;;;;;;10.55;7.38;;;16.30;99.90;;;;;;5050014;28;20075;-65
2023/09/26 00:39:30;;;;;;;9.70;7.05;;;16.30;99.90;;;;;;5048398;28;20502;-65
2023/09/26 00:41:55;;;;;;;10.88;7.05;;;16.20;99.90;;;;;;5050694;28;20045;-65
2023/09/26 00:44:21;;;;;;;9.65;6.80;;;16.20;99.90;;;;;;5051484;28;20136;-65
2023/09/26 00:46:47;;;;;;;13.50;6.85;;;16.20;99.90;;;;;;5051070;28;20550;-65
2023/09/26 00:49:13;;;;;;;8.85;6.45;;;16.20;99.90;;;;;;5047056;28;20450;-65
2023/09/26 00:51:39;;;;;;;10.43;6.80;;;16.20;99.90;;;;;;5045914;28;20036;-65
2023/09/26 00:54:09;;;;;;;9.68;6.68;;;16.20;99.90;;;;;;5046423;28;20033;-65
2023/09/26 00:56:35;;;;;;;11.55;6.65;;;16.10;99.90;;;;;;5050163;28;20041;-65
2023/09/26 00:59:00;;;;;;;9.32;6.70;;;16.10;99.90;;;;;;5046711;28;20396;-65
2023/09/26 01:01:30;;;;;;;8.57;6.00;;;16.10;99.90;;;;;;5050669;28;20033;-65
2023/09/26 01:03:57;;;;;;;9.45;6.68;;;16.10;99.90;;;;;;5050848;28;20485;-65
2023/09/26 01:06:22;;;;;;;11.80;6.68;;;16.00;99.90;;;;;;5045262;28;20052;-65
2023/09/26 01:08:48;;;;;;;10.15;6.32;;;16.00;99.90;;;;;;5045418;28;20112;-65
2023/09/26 01:11:15;;;;;;;10.43;7.03;;;15.90;99.90;;;;;;5045490;28;20471;-65
2023/09/26 01:13:40;;;;;;;10.13;7.63;;;15.90;99.90;;;;;;5049521;28;20489;-65
2023/09/26 01:16:17;;;;;;;10.68;7.97;;;15.90;99.90;;;;;;5047456;28;20119;-65
2023/09/26 01:18:43;;;;;;;12.07;7.68;;;15.80;99.90;;;;;;5044965;28;20105;-65
2023/09/26 01:21:10;;;;;;;10.23;8.05;;;15.80;99.90;;;;;;5048571;28;20059;-65
2023/09/26 01:23:56;;;;;;;10.27;8.27;;;15.80;99.90;;;;;;5044175;28;20072;-65
2023/09/26 01:26:21;;;;;;;11.23;8.05;;;15.70;99.90;;;;;;5049813;28;20105;-65
2023/09/26 01:28:47;;;;;;;12.32;9.07;;;15.70;99.90;;;;;;5042912;28;20075;-65
2023/09/26 01:31:12;;;;;;;11.18;9.50;;;15.60;99.90;;;;;;5050990;28;20045;-65
2023/09/26 01:33:38;;;;;;;12.32;8.77;;;15.60;99.90;;;;;;5049667;28;20044;-65
2023/09/26 01:36:04;;;;;;;10.70;8.55;;;15.60;99.90;;;;;;5049838;28;20051;-65
2023/09/26 01:38:29;;;;;;;15.50;9.15;;;15.60;99.90;;;;;;5041778;28;20043;-65
2023/09/26 01:40:55;;;;;;;10.25;8.98;;;15.50;99.90;;;;;;5044726;28;20036;-65
2023/09/26 01:43:21;;;;;;;11.77;8.25;;;15.50;99.90;;;;;;5049288;28;20045;-65
2023/09/26 01:45:47;;;;;;;12.40;8.90;;;15.50;99.90;;;;;;5049735;28;20403;-65
2023/09/26 01:48:13;;;;;;;11.55;8.48;;;15.50;99.90;;;;;;5042489;28;20080;-66
2023/09/26 01:50:39;;;;;;;11.60;9.00;;;15.50;99.90;;;;;;5044367;28;20064;-64
2023/09/26 01:53:04;;;;;;;14.32;8.90;;;15.50;99.90;;;;;;5049987;28;20045;-65
2023/09/26 01:55:30;;;;;;;13.65;8.73;;;15.40;99.90;;;;;;5041963;28;20059;-65
2023/09/26 01:57:56;;;;;;;11.50;9.20;;;15.40;99.90;;;;;;5050270;28;20045;-64
2023/09/26 02:00:22;;;;;;;13.18;8.80;;;15.40;99.90;;;;;;5049147;28;20033;-65
2023/09/26 02:02:50;;;;;;;14.60;9.52;;;15.40;99.90;;;;;;5049562;28;20464;-65
2023/09/26 02:05:17;;;;;;;15.70;9.65;;;15.40;99.90;;;;;;5046904;28;20033;-65
2023/09/26 02:07:45;;;;;;;12.85;9.35;;;15.60;99.90;;;;;;5050878;28;20043;-65
2023/09/26 02:10:11;;;;;;;12.20;9.52;;;15.30;99.90;;;;;;5047630;28;20513;-65
2023/09/26 02:12:40;;;;;;;12.52;9.80;;;15.40;99.90;;;;;;5050586;28;20045;-65
2023/09/26 02:15:08;;;;;;;12.65;10.27;;;15.30;99.90;;;;;;5050165;28;20044;-64
2023/09/26 02:17:35;;;;;;;16.00;10.55;;;15.20;99.90;;;;;;5043710;28;20461;-65
2023/09/26 02:20:12;;;;;;;11.73;9.60;;;15.20;99.90;;;;;;5048587;28;20118;-65
2023/09/26 02:22:38;;;;;;;14.55;10.70;;;15.20;99.90;;;;;;5048998;28;20045;-65
2023/09/26 02:25:05;;;;;;;15.13;11.02;;;15.10;99.90;;;;;;5049018;28;20442;-64
2023/09/26 02:27:30;;;;;;;12.32;10.60;;;15.10;99.90;;;;;;5048459;28;20150;-65
2023/09/26 02:29:56;;;;;;;14.18;11.57;;;15.10;99.90;;;;;;5049212;28;20062;-65
2023/09/26 02:32:22;;;;;;;18.23;10.80;;;15.00;99.90;;;;;;5048598;28;20033;-65
2023/09/26 02:34:47;;;;;;;20.65;11.27;;;15.00;99.90;;;;;;5048320;28;20166;-64
2023/09/26 02:37:13;;;;;;;14.88;11.10;;;14.90;99.90;;;;;;5049066;28;20047;-64
2023/09/26 02:39:38;;;;;;;17.50;11.35;;;14.90;99.90;;;;;;5047930;28;20048;-65
2023/09/26 02:42:04;;;;;;;12.65;10.82;;;14.90;99.90;;;;;;5049298;28;20040;-65
2023/09/26 02:44:30;;;;;;;14.73;11.82;;;14.90;99.90;;;;;;5047484;28;20427;-64
2023/09/26 02:46:55;;;;;;;19.55;12.93;;;14.80;99.90;;;;;;5048602;28;20083;-64
2023/09/26 02:49:21;;;;;;;17.17;12.02;;;14.80;99.90;;;;;;5048527;28;20041;-65
2023/09/26 02:51:46;;;;;;;17.45;12.63;;;14.90;99.90;;;;;;5047832;28;20037;-66
2023/09/26 02:54:12;;;;;;;15.48;12.80;;;14.80;99.90;;;;;;5045511;28;20080;-64
2023/09/26 02:56:41;;;;;;;15.18;12.40;;;14.80;99.90;;;;;;5047877;28;20033;-64
2023/09/26 02:59:06;;;;;;;16.15;12.70;;;14.80;99.90;;;;;;5048349;28;20612;-64
2023/09/26 03:01:32;;;;;;;14.77;12.30;;;14.80;99.90;;;;;;5048544;28;20032;-64
2023/09/26 03:03:57;;;;;;;17.48;13.60;;;14.70;99.90;;;;;;5047713;28;20653;-64
2023/09/26 03:06:23;;;;;;;16.20;13.93;;;14.70;99.90;;;;;;5027863;28;20124;-65
2023/09/26 03:08:48;;;;;;;15.45;12.98;;;14.70;99.90;;;;;;5048475;28;20406;-64
2023/09/26 03:11:14;;;;;;;15.13;13.27;;;14.70;99.90;;;;;;5048421;28;20036;-64
2023/09/26 03:13:40;;;;;;;17.02;12.93;;;14.60;99.90;;;;;;5046309;28;20026;-64
2023/09/26 03:16:08;;;;;;;16.15;12.52;;;14.60;99.90;;;;;;5046261;28;20040;-64
2023/09/26 03:18:35;;;;;;;15.93;12.70;;;14.60;99.90;;;;;;5048347;28;20052;-64
2023/09/26 03:21:05;;;;;;;17.75;12.75;;;14.50;99.90;;;;;;5048383;28;20403;-64
2023/09/26 03:23:31;;;;;;;16.40;13.25;;;14.50;99.90;;;;;;5047408;28;20337;-64
2023/09/26 03:25:56;;;;;;;16.90;13.48;;;14.50;99.90;;;;;;5047273;28;20223;-64
2023/09/26 03:28:22;;;;;;;16.63;13.73;;;14.50;99.90;;;;;;5046197;28;20593;-64
2023/09/26 03:30:47;;;;;;;19.73;13.93;;;14.50;99.90;;;;;;5047404;28;20085;-64
2023/09/26 03:33:13;;;;;;;17.92;13.77;;;14.40;99.90;;;;;;5047682;28;20051;-64
2023/09/26 03:35:39;;;;;;;16.30;13.82;;;14.40;99.90;;;;;;5045782;28;20208;-64
2023/09/26 03:38:04;;;;;;;18.33;13.05;;;14.40;99.90;;;;;;5046477;28;20045;-64
2023/09/26 03:40:30;;;;;;;17.70;13.85;;;14.40;99.90;;;;;;5042085;28;20044;-64
2023/09/26 03:42:56;;;;;;;18.55;13.93;;;14.40;99.90;;;;;;5049167;28;20430;-64
2023/09/26 03:45:22;;;;;;;16.02;12.98;;;14.30;99.90;;;;;;5048124;28;20029;-64
2023/09/26 03:47:48;;;;;;;14.38;12.18;;;14.30;99.90;;;;;;5045309;28;20494;-64
2023/09/26 03:50:14;;;;;;;17.65;12.45;;;14.30;99.90;;;;;;5049633;28;20124;-64
2023/09/26 03:52:39;;;;;;;17.02;13.02;;;14.30;99.90;;;;;;5051218;28;20123;-64
2023/09/26 03:55:06;;;;;;;17.30;12.45;;;14.30;99.90;;;;;;5047974;28;20045;-64
2023/09/26 03:57:32;;;;;;;15.45;12.57;;;14.20;99.90;;;;;;5050322;28;20064;-64
2023/09/26 03:59:58;;;;;;;16.95;12.40;;;14.20;99.90;;;;;;5051073;28;20041;-64
2023/09/26 04:02:24;;;;;;;17.88;13.20;;;14.20;99.90;;;;;;5043728;28;20040;-64
2023/09/26 04:04:49;;;;;;;17.15;13.70;;;14.20;99.90;;;;;;5050194;28;20077;-64
2023/09/26 04:07:15;;;;;;;18.60;13.57;;;14.10;99.90;;;;;;5050962;28;20033;-64
2023/09/26 04:09:40;;;;;;;17.35;13.73;;;14.10;99.90;;;;;;5045223;28;20045;-64
2023/09/26 04:12:06;;;;;;;20.27;13.48;;;14.10;99.90;;;;;;5049284;28;20495;-64
2023/09/26 04:14:32;;;;;;;17.15;12.95;;;14.00;99.90;;;;;;5047711;28;20045;-64
2023/09/26 04:16:58;;;;;;;16.90;13.00;;;14.00;99.90;;;;;;5049480;28;20040;-64
2023/09/26 04:19:24;;;;;;;15.57;13.38;;;14.00;99.90;;;;;;5044695;28;20044;-64
2023/09/26 04:21:53;;;;;;;18.38;12.52;;;14.00;99.90;;;;;;5061590;22;20034;-66
2023/09/26 04:24:19;;;;;;;15.68;12.65;;;14.00;99.90;;;;;;5039308;28;20866;-66
2023/09/26 04:26:45;;;;;;;17.02;13.80;;;14.00;99.90;;;;;;5033934;28;20084;-67
2023/09/26 04:29:11;;;;;;;18.20;13.88;;;14.00;99.90;;;;;;5032970;28;20442;-68
2023/09/26 04:31:37;;;;;;;15.45;12.60;;;14.00;99.90;;;;;;5029191;28;20053;-66
2023/09/26 04:34:03;;;;;;;14.70;12.68;;;14.00;99.90;;;;;;5013674;28;20045;-67
2023/09/26 04:36:29;;;;;;;16.27;12.60;;;13.90;99.90;;;;;;5026612;28;20422;-66
2023/09/26 04:38:55;;;;;;;16.88;12.20;;;13.90;99.90;;;;;;5010640;28;20366;-67
2023/09/26 04:41:20;;;;;;;14.85;12.40;;;13.90;99.90;;;;;;5030560;28;20508;-66
2023/09/26 04:43:46;;;;;;;19.75;13.30;;;13.90;99.90;;;;;;5025531;28;20029;-67
2023/09/26 04:46:12;;;;;;;16.90;12.32;;;13.90;99.90;;;;;;5012255;28;20068;-66
2023/09/26 04:48:39;;;;;;;16.50;12.38;;;13.80;99.90;;;;;;5027278;28;20168;-66
2023/09/26 04:51:14;;;;;;;16.15;12.27;;;13.80;99.90;;;;;;5003078;28;20079;-66
2023/09/26 04:53:41;;;;;;;16.88;13.18;;;13.80;99.90;;;;;;5020932;28;20488;-67
2023/09/26 04:56:07;;;;;;;16.30;13.00;;;13.80;99.90;;;;;;5026019;28;20076;-66
2023/09/26 04:58:33;;;;;;;18.50;12.48;;;13.80;99.90;;;;;;5006417;28;20136;-66
2023/09/26 05:01:02;;;;;;;16.38;13.15;;;13.70;99.90;;;;;;5027290;28;20033;-67
2023/09/26 05:03:29;;;;;;;14.73;13.10;;;13.70;99.90;;;;;;5007240;28;20036;-67
2023/09/26 05:05:54;;;;;;;15.52;12.40;;;13.70;99.90;;;;;;5027728;28;20475;-66
2023/09/26 05:08:20;;;;;;;15.10;12.30;;;13.70;99.90;;;;;;5008407;28;20041;-68
2023/09/26 05:10:48;;;;;;;19.40;13.38;;;13.70;99.90;;;;;;5025975;28;20415;-66
2023/09/26 05:13:14;;;;;;;17.52;12.23;;;13.70;99.90;;;;;;5016223;28;20049;-66
2023/09/26 05:15:40;;;;;;;16.42;12.45;;;13.70;99.90;;;;;;5002742;28;20321;-66
2023/09/26 05:18:05;;;;;;;15.05;12.57;;;13.60;99.90;;;;;;5022507;28;20045;-67
2023/09/26 05:20:31;;;;;;;15.80;12.68;;;13.60;99.90;;;;;;5035526;28;20029;-67
2023/09/26 05:22:58;;;;;;;15.60;12.80;;;13.60;99.90;;;;;;5024082;28;20080;-67
2023/09/26 05:25:24;;;;;;;15.98;12.43;;;13.60;99.90;;;;;;5016737;28;20502;-66
2023/09/26 05:27:49;;;;;;;17.38;12.55;;;13.60;99.90;;;;;;5006945;28;20037;-67
2023/09/26 05:30:15;;;;;;;16.30;12.98;;;13.60;99.90;;;;;;5010607;28;20056;-67
2023/09/26 05:32:41;;;;;;;18.75;12.93;;;13.60;99.90;;;;;;5019970;28;20029;-67
2023/09/26 05:35:08;;;;;;;16.92;12.77;;;13.60;99.90;;;;;;5022844;28;20451;-67
2023/09/26 05:37:34;;;;;;;16.30;12.00;;;13.60;99.90;;;;;;5026247;28;20359;-67
2023/09/26 05:40:01;;;;;;;19.05;12.35;;;13.60;99.90;;;;;;5008450;28;20046;-67
2023/09/26 05:42:26;;;;;;;16.92;12.73;;;13.60;99.90;;;;;;5021206;28;20073;-67
2023/09/26 05:44:52;;;;;;;14.98;12.02;;;13.70;99.90;;;;;;5031617;28;20077;-67
2023/09/26 05:47:18;;;;;;;17.55;12.23;;;13.60;99.90;;;;;;5019479;28;20069;-67
2023/09/26 05:49:43;;;;;;;16.38;12.73;;;13.60;99.90;;;;;;5023611;28;20048;-67
2023/09/26 05:52:09;;;;;;;17.67;11.63;;;13.70;99.90;;;;;;5023875;28;20037;-68
2023/09/26 05:54:35;;;;;;;15.02;12.48;;;13.70;99.90;;;;;;5019376;28;20045;-67
2023/09/26 05:57:03;;;;;;;17.48;11.88;;;13.70;99.90;;;;;;5030497;28;20033;-67
2023/09/26 05:59:29;;;;;;;15.18;12.07;;;13.70;99.90;;;;;;5028932;28;20034;-68
2023/09/26 06:01:55;;;;;;;14.65;11.68;;;13.70;99.90;;;;;;5030870;28;20410;-67
2023/09/26 06:04:21;;;;;;;15.85;11.88;;;13.70;99.90;;;;;;5011529;28;20120;-67
2023/09/26 06:06:46;;;;;;;15.55;11.75;;;13.80;99.90;;;;;;5029677;28;20384;-67
2023/09/26 06:09:12;;;;;;;16.42;11.55;;;13.80;99.90;;;;;;5010858;28;20799;-67
2023/09/26 06:11:37;;;;;;;17.90;11.13;;;13.80;99.90;;;;;;4998059;28;20095;-68
2023/09/26 06:14:03;;;;;;;15.32;11.35;;;13.80;99.90;;;;;;5020787;28;20041;-67
2023/09/26 06:16:29;;;;;;;14.13;11.23;;;13.80;99.90;;;;;;4999371;28;20483;-67
2023/09/26 06:18:56;;;;;;;14.07;11.38;;;13.80;99.90;;;;;;5028078;28;20085;-67
2023/09/26 06:21:22;;;;;;;14.45;11.57;;;13.90;99.90;;;;;;5028673;28;20048;-67
2023/09/26 06:23:50;;;;;;;14.45;11.18;;;13.80;99.90;;;;;;5030972;28;20033;-67
2023/09/26 06:26:16;;;;;;;17.58;11.07;;;13.90;99.90;;;;;;5021521;28;20492;-67
2023/09/26 06:28:41;;;;;;;15.13;10.68;;;13.90;99.90;;;;;;4999960;28;20370;-67
2023/09/26 06:31:08;;;;;;;14.18;11.00;;;13.90;99.90;;;;;;5024373;28;20072;-67
2023/09/26 06:33:35;;;;;;;13.70;10.88;;;14.00;99.90;;;;;;5011291;28;20045;-68
2023/09/26 06:36:01;;;;;;;15.40;11.52;;;14.00;99.90;;;;;;5028499;28;20381;-67
2023/09/26 06:38:28;;;;;;;16.20;11.57;;;14.00;99.90;;;;;;5032014;28;20531;-68
2023/09/26 06:41:05;;;;;;;14.80;10.95;;;14.00;99.90;;;;;;5027484;28;20434;-67
2023/09/26 06:43:31;;;;;;;15.60;11.68;;;14.00;99.90;;;;;;5021489;28;20116;-67
2023/09/26 06:45:56;;;;;;;17.10;12.13;;;14.00;99.90;;;;;;5009937;28;20124;-67
2023/09/26 06:48:22;;;;;;;13.80;11.23;;;14.00;99.90;;;;;;5029067;28;20341;-67
2023/09/26 06:50:48;;;;;;;12.63;10.73;;;14.10;99.90;;;;;;5021186;28;20069;-67
2023/09/26 06:53:13;;;;;;;15.90;11.18;;;14.10;99.90;;;;;;5019032;28;20503;-67
2023/09/26 06:55:39;;;;;;;14.20;11.88;;;14.10;99.90;;;;;;4988722;28;20041;-67
2023/09/26 06:58:09;;;;;;;14.68;11.50;;;14.10;99.90;;;;;;5022242;28;20053;-68
2023/09/26 07:00:37;;;;;;;15.07;11.35;;;14.20;99.90;;;;;;5005294;28;20064;-67
2023/09/26 07:03:05;;;;;;;15.23;11.70;;;14.20;99.90;;;;;;5003199;28;20049;-68
2023/09/26 07:05:31;;;;;;;16.55;11.75;;;14.20;99.90;;;;;;5024263;28;20254;-67
2023/09/26 07:07:57;;;;;;;16.05;11.88;;;14.20;99.90;;;;;;5021788;28;20780;-69
2023/09/26 07:10:23;;;;;;;13.52;11.43;;;14.30;99.90;;;;;;5024651;28;20233;-67
2023/09/26 07:12:49;;;;;;;13.98;10.95;;;14.30;99.90;;;;;;5000673;28;20059;-67
2023/09/26 07:15:15;;;;;;;15.63;11.60;;;14.40;99.90;;;;;;5023080;28;20037;-67
2023/09/26 07:17:41;;;;;;;16.80;11.82;;;14.40;99.90;;;;;;5022188;28;20038;-67
2023/09/26 07:20:13;;;;;;;19.77;12.70;;;14.50;99.90;;;;;;5022919;28;20499;-67
2023/09/26 07:22:40;;;;;;;14.60;10.82;;;14.50;99.90;;;;;;4982179;28;20080;-68
2023/09/26 07:25:06;;;;;;;14.50;12.13;;;14.60;99.90;;;;;;5000328;28;20491;-67
2023/09/26 07:27:32;;;;;;;15.68;11.35;;;14.60;99.90;;;;;;5002733;28;20069;-67
2023/09/26 07:29:58;;;;;;;15.60;10.65;;;14.60;99.90;;;;;;5021107;28;20504;-68
2023/09/26 07:32:23;;;;;;;15.13;10.93;;;14.70;99.90;;;;;;5025869;28;20037;-67
2023/09/26 07:34:49;;;;;;;18.23;11.65;;;14.70;99.90;;;;;;5005628;28;20037;-67
2023/09/26 07:37:15;;;;;;;20.02;12.63;;;14.80;99.90;;;;;;5003404;28;20096;-68
2023/09/26 07:39:48;;;;;;;12.88;10.70;;;14.80;99.90;;;;;;5014095;28;20042;-68
2023/09/26 07:42:14;;;;;;;13.93;10.88;;;14.80;99.90;;;;;;5003916;28;20168;-67
2023/09/26 07:44:40;;;;;;;15.02;10.98;;;14.90;99.90;;;;;;5006752;28;20037;-67
2023/09/26 07:47:05;;;;;;;16.15;11.73;;;15.00;99.90;;;;;;4993433;28;20056;-68
2023/09/26 07:49:31;;;;;;;15.13;11.38;;;15.00;99.90;;;;;;5017680;28;20038;-68
2023/09/26 07:51:57;;;;;;;16.10;11.07;;;15.10;99.90;;;;;;5016888;28;20038;-67
2023/09/26 07:54:22;;;;;;;18.15;10.48;;;15.10;99.90;;;;;;5021632;28;20045;-68
2023/09/26 07:56:48;;;;;;;18.33;12.32;;;15.20;99.90;;;;;;5023771;28;20095;-67
2023/09/26 07:59:14;;;;;;;13.57;11.13;;;15.30;99.90;;;;;;5008724;28;20034;-68
2023/09/26 08:01:40;;;;;;;13.52;10.20;;;15.30;99.90;;;;;;5021913;28;20038;-67
2023/09/26 08:04:07;;;;;;;16.33;10.43;;;15.50;99.90;;;;;;5019478;28;20029;-67
2023/09/26 08:06:33;;;;;;;15.80;10.82;;;15.50;99.90;;;;;;5026822;28;20041;-67
2023/09/26 08:08:59;;;;;;;14.10;10.27;;;15.60;99.90;;;;;;5004825;28;20050;-68
2023/09/26 08:11:27;;;;;;;14.30;10.30;;;15.70;99.90;;;;;;5019841;28;20225;-67
2023/09/26 08:13:54;;;;;;;13.20;9.70;;;15.70;99.90;;;;;;5022985;28;20156;-68
2023/09/26 08:16:21;;;;;;;18.63;9.68;;;15.80;99.90;;;;;;5018851;28;20045;-68
2023/09/26 08:18:49;;;;;;;19.10;10.68;;;15.90;99.90;;;;;;5033629;28;20041;-68
2023/09/26 08:21:14;;;;;;;13.32;9.50;;;16.00;99.90;;;;;;5021743;28;20056;-68
2023/09/26 08:23:40;;;;;;;14.98;9.43;;;16.00;99.90;;;;;;5009557;28;20124;-68
2023/09/26 08:26:12;;;;;;;16.08;9.95;;;16.10;99.90;;;;;;5020839;28;20458;-68
2023/09/26 08:28:40;;;;;;;17.15;10.15;;;16.10;99.90;;;;;;5024154;28;20045;-68
2023/09/26 08:31:10;;;;;;;15.68;9.82;;;16.20;99.90;;;;;;5004499;28;20054;-68
2023/09/26 08:33:36;;;;;;;17.17;10.48;;;16.20;99.90;;;;;;5016754;28;20049;-68
2023/09/26 08:36:05;;;;;;;16.65;10.48;;;16.30;99.90;;;;;;5024978;28;20045;-68
2023/09/26 08:38:30;;;;;;;16.55;10.57;;;16.30;99.90;;;;;;5020932;28;20037;-68
2023/09/26 08:40:57;;;;;;;14.63;10.70;;;16.40;99.90;;;;;;5006767;28;20121;-68
2023/09/26 08:43:25;;;;;;;15.25;11.30;;;16.40;99.90;;;;;;5018667;28;20542;-68
2023/09/26 08:45:51;;;;;;;14.70;10.68;;;16.50;99.90;;;;;;5014568;28;20437;-68
2023/09/26 08:48:18;;;;;;;14.43;9.93;;;16.50;99.90;;;;;;5027621;28;20175;-68
2023/09/26 08:50:43;;;;;;;13.45;9.95;;;16.60;99.90;;;;;;5017412;28;20033;-68
2023/09/26 08:53:09;;;;;;;15.98;9.90;;;16.60;99.90;;;;;;5030451;28;20038;-68
2023/09/26 08:55:39;;;;;;;13.55;9.60;;;16.70;99.90;;;;;;5021168;28;20049;-68
2023/09/26 08:58:06;;;;;;;17.58;9.15;;;16.70;99.90;;;;;;5030980;28;20068;-68
2023/09/26 09:00:32;;;;;;;15.63;10.60;;;16.80;99.90;;;;;;5023647;28;20550;-68
2023/09/26 09:02:57;;;;;;;14.52;10.35;;;16.80;99.90;;;;;;5019615;28;20037;-68
2023/09/26 09:05:23;;;;;;;15.90;10.48;;;16.90;99.90;;;;;;5029858;28;20471;-68
2023/09/26 09:07:49;;;;;;;16.92;9.70;;;16.90;99.90;;;;;;5024456;28;20038;-68
2023/09/26 09:10:18;;;;;;;19.33;10.90;;;16.90;99.90;;;;;;5009693;28;20120;-68
2023/09/26 09:12:50;;;;;;;17.08;10.48;;;16.90;99.90;;;;;;5025614;28;20041;-68
2023/09/26 09:15:15;;;;;;;15.02;10.63;;;17.10;99.90;;;;;;5023692;28;20120;-69
2023/09/26 09:17:42;;;;;;;18.05;11.20;;;17.10;99.90;;;;;;5023693;28;20186;-68
2023/09/26 09:20:09;;;;;;;18.83;10.68;;;17.20;99.90;;;;;;5025012;28;20495;-68
2023/09/26 09:22:35;;;;;;;19.25;11.32;;;17.30;99.90;;;;;;5027460;28;20133;-69
2023/09/26 09:25:02;;;;;;;18.90;10.70;;;17.30;99.90;;;;;;5008713;28;20129;-68
2023/09/26 09:27:34;;;;;;;16.08;10.45;;;17.40;99.90;;;;;;5026843;28;20030;-68
2023/09/26 09:30:15;;;;;;;15.77;10.05;;;17.50;99.90;;;;;;5025940;28;20072;-68
2023/09/26 09:32:43;;;;;;;21.52;10.32;;;17.60;99.90;;;;;;5027126;28;20565;-68
2023/09/26 09:35:15;;;;;;;15.70;9.68;;;17.60;99.90;;;;;;5033360;28;20504;-69
2023/09/26 09:37:46;;;;;;;13.63;8.95;;;17.70;99.90;;;;;;5022542;28;20281;-69
2023/09/26 09:40:20;;;;;;;12.23;9.18;;;17.80;99.90;;;;;;5007253;28;20042;-69
2023/09/26 09:42:49;;;;;;;15.05;9.57;;;17.90;99.90;;;;;;5026484;28;20038;-69
2023/09/26 09:45:19;;;;;;;13.30;9.00;;;18.10;99.90;;;;;;5022477;28;20047;-69
2023/09/26 09:47:46;;;;;;;15.93;8.77;;;18.10;99.90;;;;;;5026828;28;20051;-69
2023/09/26 09:50:13;;;;;;;13.45;8.95;;;18.30;99.90;;;;;;5027960;28;20037;-69
2023/09/26 09:52:46;;;;;;;12.25;8.20;;;18.40;99.90;;;;;;5010835;28;20037;-69
2023/09/26 09:55:23;;;;;;;10.90;7.82;;;18.50;99.90;;;;;;5004085;28;20041;-69
2023/09/26 09:57:53;;;;;;;17.52;9.07;;;18.70;99.90;;;;;;5024762;28;20491;-69
2023/09/26 10:00:25;;;;;;;13.38;8.93;;;18.70;99.90;;;;;;5025944;28;20091;-69
2023/09/26 10:02:52;;;;;;;12.32;8.45;;;18.70;99.90;;;;;;5020447;28;20384;-69
2023/09/26 10:05:21;;;;;;;11.98;8.07;;;18.60;99.90;;;;;;5030090;28;20116;-68
2023/09/26 10:07:49;;;;;;;15.57;7.95;;;18.60;99.90;;;;;;5022779;28;20121;-69
2023/09/26 10:10:17;;;;;;;13.05;8.70;;;18.60;99.90;;;;;;5009866;28;20038;-68
2023/09/26 10:12:44;;;;;;;13.70;8.45;;;18.80;99.90;;;;;;5007339;28;20038;-69
2023/09/26 10:15:11;;;;;;;14.45;8.50;;;18.70;99.90;;;;;;5027997;28;20080;-69
2023/09/26 10:17:43;;;;;;;12.98;7.72;;;18.80;99.90;;;;;;5022246;28;20124;-69
2023/09/26 10:20:14;;;;;;;10.70;8.43;;;18.80;99.90;;;;;;5011641;28;20406;-69
2023/09/26 10:22:41;;;;;;;11.52;8.10;;;18.90;99.90;;;;;;5066572;23;20071;-77
2023/09/26 10:25:19;;;;;;;13.43;8.57;;;18.90;99.90;;;;;;5035592;28;20080;-77
2023/09/26 10:27:50;;;;;;;12.20;8.10;;;19.00;99.90;;;;;;5021582;28;20056;-78
2023/09/26 10:30:18;;;;;;;11.35;8.32;;;19.00;99.90;;;;;;5033038;28;20102;-77
2023/09/26 10:32:45;;;;;;;12.05;8.32;;;19.00;99.90;;;;;;5030120;28;20099;-79
2023/09/26 10:35:13;;;;;;;10.95;7.95;;;19.10;99.90;;;;;;5030129;28;20040;-75
2023/09/26 10:37:52;;;;;;;12.57;8.27;;;19.10;99.90;;;;;;5031660;28;20447;-78
2023/09/26 10:40:18;;;;;;;13.25;8.73;;;19.20;99.90;;;;;;5043277;28;20025;-78
2023/09/26 10:42:49;;;;;;;14.88;9.00;;;19.30;99.90;;;;;;5035628;28;20488;-77
2023/09/26 10:45:16;;;;;;;12.55;9.10;;;19.30;99.90;;;;;;5029460;28;20040;-77
2023/09/26 10:47:42;;;;;;;12.13;9.43;;;19.30;99.90;;;;;;5026661;28;20431;-78
2023/09/26 10:50:12;;;;;;;14.88;9.10;;;19.40;99.90;;;;;;5044133;28;20049;-80
2023/09/26 10:52:46;;;;;;;15.00;9.93;;;19.40;99.90;;;;;;5027175;28;20045;-78
2023/09/26 10:55:16;;;;;;;17.25;9.75;;;19.40;99.90;;;;;;5030591;28;20037;-78
2023/09/26 10:57:44;;;;;;;14.48;9.32;;;19.40;99.90;;;;;;5028949;28;20045;-78
2023/09/26 11:00:11;;;;;;;12.23;8.50;;;19.40;99.90;;;;;;5028623;28;20049;-78
2023/09/26 11:02:38;;;;;;;11.98;8.65;;;19.50;99.90;;;;;;5024862;28;20053;-77
2023/09/26 11:05:12;;;;;;;11.27;8.30;;;19.60;99.90;;;;;;5025110;28;20052;-79
2023/09/26 11:07:38;;;;;;;13.88;9.00;;;19.70;99.90;;;;;;5026858;28;20341;-79
2023/09/26 11:10:05;;;;;;;13.57;9.68;;;19.70;99.90;;;;;;5031700;28;20091;-80
2023/09/26 11:12:31;;;;;;;11.82;9.55;;;19.80;99.90;;;;;;5043472;28;20041;-78
2023/09/26 11:14:59;;;;;;;12.48;10.27;;;19.60;99.90;;;;;;5022162;28;20537;-78
2023/09/26 11:17:27;;;;;;;17.13;10.65;;;19.70;99.90;;;;;;5029044;28;20036;-78
2023/09/26 11:19:57;;;;;;;13.63;10.32;;;19.60;99.90;;;;;;5026086;28;20081;-77
2023/09/26 11:22:25;;;;;;;13.07;10.27;;;19.50;99.90;;;;;;5038721;28;20128;-79
2023/09/26 11:25:05;;;;;;;12.63;10.02;;;19.50;99.90;;;;;;5045549;28;20044;-77
2023/09/26 11:27:31;;;;;;;16.25;10.60;;;19.50;99.90;;;;;;5026185;28;20033;-77
2023/09/26 11:30:01;;;;;;;13.30;10.02;;;19.50;99.90;;;;;;5043816;28;20041;-76
2023/09/26 11:32:27;;;;;;;13.95;10.45;;;19.50;99.90;;;;;;5040603;28;21950;-78
2023/09/26 11:34:53;;;;;;;16.02;9.75;;;19.50;99.90;;;;;;5025090;28;20068;-77
2023/09/26 11:37:18;;;;;;;10.55;9.23;;;19.60;99.90;;;;;;5043209;28;20493;-79
2023/09/26 11:39:50;;;;;;;12.02;9.18;;;19.70;99.90;;;;;;5026183;28;20120;-77
2023/09/26 11:42:17;;;;;;;13.60;10.30;;;19.70;99.90;;;;;;5020259;28;20060;-77
2023/09/26 11:44:53;;;;;;;13.52;10.13;;;19.90;99.90;;;;;;5026441;28;20378;-78
2023/09/26 11:47:24;;;;;;;12.73;10.35;;;19.90;99.90;;;;;;5021348;28;20036;-77
2023/09/26 11:49:51;;;;;;;15.18;10.50;;;19.90;99.90;;;;;;5029704;28;20052;-77
2023/09/26 11:52:17;;;;;;;13.68;9.70;;;19.90;99.90;;;;;;5038451;28;20075;-81
2023/09/26 11:54:44;;;;;;;13.73;9.90;;;20.00;99.90;;;;;;5026293;28;20147;-78
2023/09/26 11:57:13;;;;;;;;;;;20.10;99.90;;;;;;5026062;28;20041;-77
2023/09/26 11:59:41;;;;;;;12.50;9.35;;;20.30;99.90;;;;;;5029800;28;19920;-76
2023/09/26 12:02:08;;;;;;;14.35;9.38;;;20.40;99.90;;;;;;5026275;28;20076;-76
2023/09/26 12:04:34;;;;;;;14.38;9.82;;;20.60;99.90;;;;;;5032872;28;20041;-76
2023/09/26 12:07:00;;;;;;;16.35;9.95;;;20.60;99.90;;;;;;5030328;28;20085;-76
2023/09/26 12:09:29;;;;;;;13.55;9.57;;;20.60;99.90;;;;;;5022289;28;20045;-77
2023/09/26 12:11:55;;;;;;;16.52;9.32;;;20.60;99.90;;;;;;5028375;28;20085;-78
2023/09/26 12:14:20;;;;;;;11.23;8.35;;;20.60;99.90;;;;;;5033374;28;20504;-76
2023/09/26 12:16:51;;;;;;;12.55;8.73;;;20.50;99.90;;;;;;5037082;28;20120;-76
2023/09/26 12:19:19;;;;;;;12.93;8.10;;;20.60;99.90;;;;;;5037422;28;20041;-77
2023/09/26 12:21:45;;;;;;;12.57;8.85;;;20.60;99.90;;;;;;5029704;28;20037;-77
2023/09/26 12:24:10;;;;;;;11.25;7.75;;;20.70;99.90;;;;;;5025634;28;20064;-78
2023/09/26 12:26:38;;;;;;;12.82;7.82;;;20.70;99.90;;;;;;5034291;28;21177;-78
2023/09/26 12:29:04;;;;;;;11.68;7.88;;;20.80;99.90;;;;;;5017268;28;20111;-78